Scio, Michigan
Current Conditions -  °F | °C
As of 4:53 PM on Thursday 23 Oct 2014 (Local Time) from KARB Reporting Station
Clear Clear  
Wind Chill: 58°   Ceiling: Unl
Heat Index: 58°   Visibility: 10mi
Dew Point: 37°   Wind: 7mph
Humidity: 46%   Direction: 280°W
Pressure: 30.13"   Gusts: NA
Location:  42.3528°N, 83.8974°W
Report Text: KARB 232053Z 28006KT 10SM CLR 14/03 A3013 RMK AO2 SLP207 T01440028 56019
Loading
Personal Weather Stations






























Interactive Weather Map
Tropical Storm Tracking
New forecast layout! Learn more

10-Day Weather Forecast

Advertisements
Track Severe Weather on mobile